createdAt,value
2023-03-11T00:00:25.375Z,0.82
2023-03-11T00:02:53.861Z,0.81
2023-03-11T00:05:27.040Z,0.75
2023-03-11T00:07:54.489Z,0.69
2023-03-11T00:10:43.133Z,0.71
2023-03-11T00:13:12.185Z,0.64
2023-03-11T00:15:41.701Z,0.68
2023-03-11T00:18:08.648Z,0.69
2023-03-11T00:20:39.107Z,0.69
2023-03-11T00:23:08.193Z,0.69
2023-03-11T00:25:37.050Z,0.65
2023-03-11T00:28:07.273Z,0.62
2023-03-11T00:30:34.565Z,0.58
2023-03-11T00:33:01.405Z,0.45
2023-03-11T00:35:32.034Z,0.52
2023-03-11T00:38:01.856Z,0.50
2023-03-11T00:40:30.803Z,0.50
2023-03-11T00:42:58.321Z,0.43
2023-03-11T00:45:26.472Z,0.34
2023-03-11T00:47:54.457Z,0.31
2023-03-11T00:50:27.579Z,0.22
2023-03-11T00:52:54.340Z,0.12
2023-03-11T00:55:27.250Z,0.20
2023-03-11T00:57:55.827Z,0.19
2023-03-11T01:00:26.433Z,0.19
2023-03-11T01:02:54.536Z,0.16
2023-03-11T01:05:26.825Z,0.16
2023-03-11T01:07:53.664Z,0.12
2023-03-11T01:10:20.547Z,0.13
2023-03-11T01:12:47.528Z,0.15
2023-03-11T01:15:25.484Z,0.16
2023-03-11T01:17:52.218Z,0.14
2023-03-11T01:20:19.028Z,0.19
2023-03-11T01:22:45.768Z,0.24
2023-03-11T01:25:14.628Z,0.18
2023-03-11T01:27:41.674Z,0.16
2023-03-11T01:30:10.293Z,0.15
2023-03-11T01:32:36.953Z,0.15
2023-03-11T01:35:03.752Z,0.13
2023-03-11T01:37:30.512Z,0.09
2023-03-11T01:39:57.170Z,0.16
2023-03-11T01:42:24.399Z,0.18
2023-03-11T01:44:51.723Z,0.10
2023-03-11T01:47:37.067Z,0.19
2023-03-11T01:50:06.950Z,0.15
2023-03-11T01:52:34.038Z,0.18
2023-03-11T01:55:00.833Z,0.17
2023-03-11T01:57:28.061Z,0.14
2023-03-11T01:59:58.550Z,0.19
2023-03-11T02:02:37.198Z,0.14
2023-03-11T02:05:04.795Z,0.18
2023-03-11T02:07:31.658Z,0.17
2023-03-11T02:09:59.451Z,0.24
2023-03-11T02:12:31.135Z,0.19
2023-03-11T02:14:58.061Z,0.20
2023-03-11T02:17:25.115Z,0.11
2023-03-11T02:19:55.351Z,0.15
2023-03-11T02:22:22.124Z,0.11
2023-03-11T02:25:19.176Z,0.04
2023-03-11T02:27:49.115Z,0.04
2023-03-11T02:30:18.456Z,0.09
2023-03-11T02:32:48.553Z,0.06
2023-03-11T02:35:17.379Z,0.03
2023-03-11T02:37:46.695Z,0.06
2023-03-11T02:40:22.947Z,0.07
2023-03-11T02:42:58.080Z,0.04
2023-03-11T02:45:26.568Z,0.02
2023-03-11T02:47:55.367Z,-0.10
2023-03-11T02:50:22.896Z,-0.11
2023-03-11T02:52:50.204Z,-0.16
2023-03-11T02:55:18.292Z,-0.17
2023-03-11T02:57:45.326Z,-0.25
2023-03-11T03:00:15.845Z,-0.31
2023-03-11T03:02:52.231Z,-0.36
2023-03-11T03:05:20.741Z,-0.35
2023-03-11T03:07:48.740Z,-0.32
2023-03-11T03:10:16.817Z,-0.33
2023-03-11T03:12:44.050Z,-0.29
2023-03-11T03:15:11.519Z,-0.29
2023-03-11T03:17:39.054Z,-0.23
2023-03-11T03:20:11.397Z,-0.27
2023-03-11T03:22:41.537Z,-0.25
2023-03-11T03:25:10.410Z,-0.24
2023-03-11T03:27:38.128Z,-0.23
2023-03-11T03:30:07.598Z,-0.27
2023-03-11T03:32:35.166Z,-0.37
2023-03-11T03:35:03.417Z,-0.41
2023-03-11T03:37:46.103Z,-0.56
2023-03-11T03:40:13.660Z,-0.58
2023-03-11T03:42:40.421Z,-0.64
2023-03-11T03:45:08.589Z,-0.66
2023-03-11T03:47:36.261Z,-0.70
2023-03-11T03:50:08.653Z,-0.71
2023-03-11T03:52:36.754Z,-0.76
2023-03-11T03:55:05.526Z,-0.80
2023-03-11T03:57:32.453Z,-0.84
2023-03-11T03:59:59.201Z,-0.93
2023-03-11T04:02:26.308Z,-0.86
2023-03-11T04:04:54.315Z,-0.81
2023-03-11T04:07:21.452Z,-0.86
2023-03-11T04:09:48.419Z,-0.81
2023-03-11T04:12:17.559Z,-0.88
2023-03-11T04:14:45.757Z,-0.99
2023-03-11T04:17:13.434Z,-1.07
2023-03-11T04:19:40.837Z,-1.08
2023-03-11T04:22:07.871Z,-1.10
2023-03-11T04:24:34.556Z,-0.96
2023-03-11T04:27:01.856Z,-0.97
2023-03-11T04:29:30.251Z,-1.01
2023-03-11T04:31:57.030Z,-1.04
2023-03-11T04:34:23.783Z,-1.06
2023-03-11T04:36:55.345Z,-1.01
2023-03-11T04:39:27.907Z,-1.00
2023-03-11T04:41:56.478Z,-0.99
2023-03-11T04:44:25.673Z,-0.99
2023-03-11T04:46:53.871Z,-1.01
2023-03-11T04:49:20.568Z,-1.00
2023-03-11T04:51:48.919Z,-1.09
2023-03-11T04:54:19.401Z,-1.18
2023-03-11T04:56:46.229Z,-1.16
2023-03-11T04:59:13.236Z,-1.22
2023-03-11T05:01:41.379Z,-1.23
2023-03-11T05:04:09.105Z,-1.22
2023-03-11T05:06:36.025Z,-1.21
2023-03-11T05:09:04.697Z,-1.19
2023-03-11T05:11:34.445Z,-1.13
2023-03-11T05:14:01.184Z,-1.15
2023-03-11T05:16:28.372Z,-1.16
2023-03-11T05:18:55.727Z,-1.20
2023-03-11T05:21:22.910Z,-1.24
2023-03-11T05:23:49.694Z,-1.32
2023-03-11T05:26:16.480Z,-1.21
2023-03-11T05:28:44.548Z,-1.14
2023-03-11T05:31:11.992Z,-1.08
2023-03-11T05:33:39.242Z,-1.04
2023-03-11T05:36:10.434Z,-0.98
2023-03-11T05:38:40.568Z,-1.14
2023-03-11T05:41:07.650Z,-1.17
2023-03-11T05:43:35.983Z,-1.17
2023-03-11T05:46:02.932Z,-1.20
2023-03-11T05:48:30.929Z,-1.20
2023-03-11T05:50:57.950Z,-1.23
2023-03-11T05:53:25.303Z,-1.12
2023-03-11T05:55:59.966Z,-1.13
2023-03-11T05:58:29.146Z,-1.10
2023-03-11T06:00:56.327Z,-1.21
2023-03-11T06:03:23.322Z,-1.11
2023-03-11T06:05:52.739Z,-1.25
2023-03-11T06:08:19.647Z,-1.15
2023-03-11T06:10:48.863Z,-1.17
2023-03-11T06:13:16.644Z,-1.20
2023-03-11T06:15:48.639Z,-1.24
2023-03-11T06:18:15.709Z,-1.27
2023-03-11T06:20:42.652Z,-1.26
2023-03-11T06:23:09.331Z,-1.18
2023-03-11T06:25:36.159Z,-1.15
2023-03-11T06:28:03.235Z,-1.09
2023-03-11T06:30:30.409Z,-1.11
2023-03-11T06:33:14.449Z,-1.09
2023-03-11T06:35:41.770Z,-1.14
2023-03-11T06:38:09.138Z,-1.10
2023-03-11T06:40:37.530Z,-1.06
2023-03-11T06:43:04.222Z,-1.05
2023-03-11T06:45:33.773Z,-1.09
2023-03-11T06:48:00.492Z,-1.02
2023-03-11T06:50:28.920Z,-0.94
2023-03-11T06:52:58.600Z,-0.64
2023-03-11T06:55:25.528Z,-0.55
2023-03-11T06:57:52.301Z,-0.58
2023-03-11T07:00:19.425Z,-0.59
2023-03-11T07:02:51.809Z,-0.60
2023-03-11T07:05:18.635Z,-0.63
2023-03-11T07:07:47.972Z,-0.65
2023-03-11T07:10:14.765Z,-0.65
2023-03-11T07:12:41.478Z,-0.70
2023-03-11T07:15:08.984Z,-0.75
2023-03-11T07:17:36.285Z,-0.73
2023-03-11T07:20:03.744Z,-0.82
2023-03-11T07:22:30.631Z,-0.65
2023-03-11T07:24:57.461Z,-0.69
2023-03-11T07:27:24.147Z,-0.36
2023-03-11T07:29:50.812Z,0.36
2023-03-11T07:32:17.890Z,1.00
2023-03-11T07:34:44.853Z,0.97
2023-03-11T07:37:11.563Z,0.62
2023-03-11T07:39:39.416Z,0.31
2023-03-11T07:42:06.202Z,0.22
2023-03-11T07:44:36.650Z,0.30
2023-03-11T07:47:04.790Z,0.43
2023-03-11T07:49:32.207Z,0.27
2023-03-11T07:51:59.125Z,0.11
2023-03-11T07:54:25.878Z,0.06
2023-03-11T07:56:52.536Z,0.07
2023-03-11T07:59:19.269Z,0.07
2023-03-11T08:01:47.334Z,0.25
2023-03-11T08:04:17.091Z,0.30
2023-03-11T08:06:46.400Z,0.40
2023-03-11T08:09:13.557Z,0.30
2023-03-11T08:11:40.609Z,0.28
2023-03-11T08:14:07.401Z,0.27
2023-03-11T08:16:34.185Z,0.27
2023-03-11T08:19:02.336Z,0.29
2023-03-11T08:21:32.150Z,0.25
2023-03-11T08:24:01.451Z,0.50
2023-03-11T08:26:29.241Z,0.57
2023-03-11T08:28:56.606Z,0.47
2023-03-11T08:31:26.710Z,0.35
2023-03-11T08:33:57.317Z,0.53
2023-03-11T08:36:24.272Z,0.78
2023-03-11T08:38:50.979Z,0.69
2023-03-11T08:41:17.647Z,1.20
2023-03-11T08:43:44.649Z,1.40
2023-03-11T08:46:31.384Z,1.66
2023-03-11T08:49:01.033Z,1.81
2023-03-11T08:51:29.445Z,1.66
2023-03-11T08:53:56.380Z,1.76
2023-03-11T08:56:23.037Z,1.60
2023-03-11T08:58:50.903Z,1.29
2023-03-11T09:01:17.962Z,1.14
2023-03-11T09:03:44.633Z,0.98
2023-03-11T09:06:15.384Z,0.98
2023-03-11T09:08:43.369Z,1.05
2023-03-11T09:11:10.739Z,1.20
2023-03-11T09:13:39.442Z,2.12
2023-03-11T09:16:06.397Z,3.01
2023-03-11T09:18:33.059Z,3.57
2023-03-11T09:21:01.062Z,4.12
2023-03-11T09:23:27.764Z,4.47
2023-03-11T09:25:54.413Z,4.23
2023-03-11T09:28:21.218Z,3.41
2023-03-11T09:30:47.857Z,2.66
2023-03-11T09:33:14.683Z,2.16
2023-03-11T09:35:41.557Z,1.98
2023-03-11T09:38:08.241Z,1.52
2023-03-11T09:40:56.216Z,1.34
2023-03-11T09:43:35.773Z,1.25
2023-03-11T09:46:14.389Z,1.24
2023-03-11T09:48:48.923Z,1.32
2023-03-11T09:51:42.591Z,1.11
2023-03-11T09:54:13.591Z,0.97
2023-03-11T09:56:44.546Z,1.11
2023-03-11T09:59:20.807Z,1.46
2023-03-11T10:01:50.142Z,1.62
2023-03-11T10:04:38.103Z,1.93
2023-03-11T10:07:12.312Z,2.46
2023-03-11T10:09:47.032Z,2.92
2023-03-11T10:12:22.826Z,2.98
2023-03-11T10:14:52.627Z,3.59
2023-03-11T10:17:36.848Z,4.35
2023-03-11T10:20:18.324Z,4.72
2023-03-11T10:22:57.117Z,4.86
2023-03-11T10:25:30.555Z,4.78
2023-03-11T10:28:05.688Z,4.64
2023-03-11T10:30:55.851Z,4.90
2023-03-11T10:33:47.657Z,4.98
2023-03-11T10:36:19.788Z,4.76
2023-03-11T10:38:49.009Z,4.58
2023-03-11T10:41:26.305Z,4.29
2023-03-11T10:44:02.034Z,4.00
2023-03-11T10:46:28.982Z,3.49
2023-03-11T10:48:56.109Z,3.24
2023-03-11T10:51:31.971Z,3.05
2023-03-11T10:54:01.118Z,2.70
2023-03-11T10:56:36.974Z,2.81
2023-03-11T10:59:18.953Z,2.84
2023-03-11T11:01:59.749Z,3.04
2023-03-11T11:04:39.696Z,2.90
2023-03-11T11:07:22.354Z,2.97
2023-03-11T11:10:08.837Z,3.64
2023-03-11T11:12:35.480Z,3.81
2023-03-11T11:15:02.135Z,3.77
2023-03-11T11:17:33.061Z,4.23
2023-03-11T11:20:12.912Z,4.72
2023-03-11T11:23:07.842Z,4.64
2023-03-11T11:25:37.769Z,4.86
2023-03-11T11:28:19.440Z,5.43
2023-03-11T11:30:59.891Z,5.53
2023-03-11T11:33:33.117Z,5.67
2023-03-11T11:36:03.537Z,5.87
2023-03-11T11:38:32.996Z,6.17
2023-03-11T11:41:03.809Z,5.73
2023-03-11T11:43:49.862Z,5.06
2023-03-11T11:46:31.233Z,4.43
2023-03-11T11:49:16.746Z,4.46
2023-03-11T11:52:03.799Z,4.72
2023-03-11T11:54:37.423Z,4.19
2023-03-11T11:57:19.616Z,4.19
2023-03-11T11:59:47.229Z,5.16
2023-03-11T12:02:23.145Z,5.60
2023-03-11T12:05:16.474Z,5.29
2023-03-11T12:07:43.072Z,5.29
2023-03-11T12:10:24.304Z,5.03
2023-03-11T12:13:18.322Z,4.40
2023-03-11T12:16:14.731Z,4.97
2023-03-11T12:19:01.824Z,5.54
2023-03-11T12:21:46.817Z,6.25
2023-03-11T12:24:44.400Z,5.93
2023-03-11T12:27:16.739Z,5.73
2023-03-11T12:29:46.841Z,5.21
2023-03-11T12:32:39.925Z,5.29
2023-03-11T12:35:19.708Z,5.50
2023-03-11T12:37:46.755Z,5.03
2023-03-11T12:40:44.486Z,4.69
2023-03-11T12:43:36.048Z,4.59
2023-03-11T12:46:05.857Z,4.63
2023-03-11T12:48:50.152Z,4.64
2023-03-11T12:51:39.158Z,4.85
2023-03-11T12:54:27.063Z,4.67
2023-03-11T12:57:23.843Z,4.80
2023-03-11T13:00:18.389Z,5.27
2023-03-11T13:03:12.420Z,4.76
2023-03-11T13:06:00.969Z,4.68
2023-03-11T13:08:33.952Z,4.64
2023-03-11T13:11:00.668Z,4.72
2023-03-11T13:13:33.272Z,4.76
2023-03-11T13:16:15.203Z,4.60
2023-03-11T13:18:43.882Z,4.92
2023-03-11T13:21:30.009Z,5.58
2023-03-11T13:24:20.046Z,6.29
2023-03-11T13:26:53.271Z,6.41
2023-03-11T13:29:41.738Z,6.48
2023-03-11T13:32:30.697Z,6.85
2023-03-11T13:35:25.038Z,6.78
2023-03-11T13:38:16.511Z,6.51
2023-03-11T13:40:45.673Z,5.96
2023-03-11T13:43:24.168Z,5.77
2023-03-11T13:46:26.924Z,6.55
2023-03-11T13:49:04.837Z,6.92
2023-03-11T13:51:44.115Z,7.21
2023-03-11T13:54:20.262Z,7.50
2023-03-11T13:56:54.004Z,7.46
2023-03-11T13:59:26.011Z,7.11
2023-03-11T14:01:55.955Z,7.11
2023-03-11T14:04:47.128Z,7.25
2023-03-11T14:07:24.251Z,7.46
2023-03-11T14:09:51.130Z,7.40
2023-03-11T14:12:23.222Z,7.20
2023-03-11T14:15:02.247Z,6.77
2023-03-11T14:17:29.082Z,6.42
2023-03-11T14:20:07.046Z,6.12
2023-03-11T14:22:34.369Z,5.71
2023-03-11T14:25:06.211Z,5.93
2023-03-11T14:27:32.937Z,6.10
2023-03-11T14:29:59.793Z,6.29
2023-03-11T14:32:32.322Z,6.28
2023-03-11T14:34:59.722Z,6.16
2023-03-11T14:37:32.503Z,6.10
2023-03-11T14:39:59.200Z,5.99
2023-03-11T14:42:29.695Z,5.92
2023-03-11T14:45:05.498Z,6.07
2023-03-11T14:47:40.161Z,6.27
2023-03-11T14:50:12.307Z,6.01
2023-03-11T14:52:47.071Z,6.00
2023-03-11T14:55:23.658Z,6.02
2023-03-11T14:58:19.564Z,6.01
2023-03-11T15:00:52.891Z,6.06
2023-03-11T15:03:26.277Z,6.19
2023-03-11T15:05:59.740Z,6.26
2023-03-11T15:08:32.822Z,6.23
2023-03-11T15:11:03.336Z,6.03
2023-03-11T15:13:30.496Z,5.83
2023-03-11T15:16:21.076Z,5.60
2023-03-11T15:18:48.182Z,5.37
2023-03-11T15:21:18.050Z,5.28
2023-03-11T15:24:06.574Z,4.95
2023-03-11T15:26:35.758Z,4.55
2023-03-11T15:29:14.074Z,4.28
2023-03-11T15:31:44.621Z,4.12
2023-03-11T15:34:22.568Z,4.10
2023-03-11T15:36:49.142Z,4.18
2023-03-11T15:39:18.853Z,4.22
2023-03-11T15:41:48.452Z,4.18
2023-03-11T15:44:41.043Z,4.21
2023-03-11T15:47:17.372Z,4.02
2023-03-11T15:49:44.236Z,3.86
2023-03-11T15:52:11.564Z,3.78
2023-03-11T15:54:39.118Z,3.79
2023-03-11T15:57:16.220Z,3.76
2023-03-11T15:59:43.535Z,3.95
2023-03-11T16:02:25.491Z,3.98
2023-03-11T16:04:53.110Z,3.98
2023-03-11T16:07:32.850Z,4.02
2023-03-11T16:10:05.814Z,4.18
2023-03-11T16:12:32.657Z,4.29
2023-03-11T16:14:59.290Z,4.24
2023-03-11T16:17:26.579Z,4.25
2023-03-11T16:19:54.253Z,4.25
2023-03-11T16:22:31.039Z,4.19
2023-03-11T16:24:59.545Z,4.00
2023-03-11T16:27:26.235Z,3.84
2023-03-11T16:29:52.980Z,3.85
2023-03-11T16:32:19.762Z,3.68
2023-03-11T16:34:46.469Z,3.72
2023-03-11T16:37:17.395Z,3.60
2023-03-11T16:39:44.072Z,3.40
2023-03-11T16:42:10.846Z,3.49
2023-03-11T16:44:37.540Z,3.60
2023-03-11T16:47:04.355Z,3.47
2023-03-11T16:49:31.027Z,3.45
2023-03-11T16:51:57.702Z,3.50
2023-03-11T16:54:24.459Z,3.52
2023-03-11T16:56:51.097Z,3.48
2023-03-11T16:59:17.698Z,3.48
2023-03-11T17:01:44.408Z,3.45
2023-03-11T17:04:11.029Z,3.33
2023-03-11T17:06:37.682Z,3.31
2023-03-11T17:09:04.482Z,3.20
2023-03-11T17:11:33.179Z,3.08
2023-03-11T17:14:13.884Z,2.96
2023-03-11T17:16:42.605Z,2.91
2023-03-11T17:19:09.235Z,2.93
2023-03-11T17:21:35.893Z,2.92
2023-03-11T17:24:02.516Z,2.95
2023-03-11T17:26:31.097Z,2.94
2023-03-11T17:28:57.758Z,2.93
2023-03-11T17:31:24.561Z,2.85
2023-03-11T17:33:51.340Z,2.80
2023-03-11T17:36:19.214Z,2.81
2023-03-11T17:38:47.619Z,2.93
2023-03-11T17:41:16.934Z,2.78
2023-03-11T17:43:44.394Z,2.88
2023-03-11T17:46:16.933Z,2.84
2023-03-11T17:48:45.489Z,2.82
2023-03-11T17:51:18.129Z,2.70
2023-03-11T17:53:46.442Z,2.71
2023-03-11T17:56:15.370Z,2.70
2023-03-11T17:58:42.232Z,2.73
2023-03-11T18:01:13.530Z,2.69
2023-03-11T18:03:40.398Z,2.68
2023-03-11T18:06:07.623Z,2.66
2023-03-11T18:08:35.409Z,2.54
2023-03-11T18:11:04.988Z,2.38
2023-03-11T18:13:32.742Z,2.28
2023-03-11T18:16:01.726Z,2.20
2023-03-11T18:18:30.290Z,2.25
2023-03-11T18:21:18.395Z,2.22
2023-03-11T18:23:45.292Z,2.10
2023-03-11T18:26:17.511Z,2.02
2023-03-11T18:28:44.262Z,1.99
2023-03-11T18:31:13.580Z,1.89
2023-03-11T18:33:42.293Z,1.86
2023-03-11T18:36:17.833Z,1.81
2023-03-11T18:38:44.828Z,1.71
2023-03-11T18:41:11.887Z,1.50
2023-03-11T18:43:38.789Z,1.56
2023-03-11T18:46:10.642Z,1.50
2023-03-11T18:48:38.354Z,1.43
2023-03-11T18:51:05.509Z,1.36
2023-03-11T18:53:32.146Z,1.29
2023-03-11T18:56:07.585Z,1.25
2023-03-11T18:58:34.480Z,1.17
2023-03-11T19:01:21.331Z,1.18
2023-03-11T19:03:53.554Z,1.13
2023-03-11T19:06:21.483Z,1.07
2023-03-11T19:08:48.654Z,0.96
2023-03-11T19:11:18.016Z,1.01
2023-03-11T19:13:47.761Z,0.97
2023-03-11T19:16:17.746Z,0.99
2023-03-11T19:18:45.100Z,0.91
2023-03-11T19:21:13.457Z,0.96
2023-03-11T19:23:40.109Z,0.91
2023-03-11T19:26:07.015Z,0.86
2023-03-11T19:28:33.859Z,0.84
2023-03-11T19:31:00.580Z,0.69
2023-03-11T19:33:27.485Z,0.76
2023-03-11T19:35:59.194Z,0.70
2023-03-11T19:38:26.733Z,0.78
2023-03-11T19:41:07.773Z,0.76
2023-03-11T19:43:38.261Z,0.75
2023-03-11T19:46:07.046Z,0.68
2023-03-11T19:48:34.094Z,0.64
2023-03-11T19:51:02.409Z,0.60
2023-03-11T19:53:29.217Z,0.57
2023-03-11T19:55:56.895Z,0.58
2023-03-11T19:58:27.909Z,0.46
2023-03-11T20:00:56.601Z,0.62
2023-03-11T20:03:23.253Z,0.64
2023-03-11T20:05:52.611Z,0.65
2023-03-11T20:08:21.476Z,0.54
2023-03-11T20:10:50.936Z,0.49
2023-03-11T20:13:20.267Z,0.49
2023-03-11T20:15:47.792Z,0.52
2023-03-11T20:18:14.550Z,0.42
2023-03-11T20:20:43.263Z,0.43
2023-03-11T20:23:11.610Z,0.25
2023-03-11T20:25:39.940Z,0.34
2023-03-11T20:28:06.924Z,0.33
2023-03-11T20:30:33.601Z,0.38
2023-03-11T20:33:00.357Z,0.33
2023-03-11T20:35:27.248Z,0.25
2023-03-11T20:37:54.131Z,0.15
2023-03-11T20:40:21.211Z,0.08
2023-03-11T20:42:47.939Z,-0.03
2023-03-11T20:45:17.537Z,-0.16
2023-03-11T20:47:44.711Z,-0.16
2023-03-11T20:50:12.696Z,-0.14
2023-03-11T20:52:39.751Z,-0.20
2023-03-11T20:55:08.405Z,-0.25
2023-03-11T20:57:35.402Z,-0.26
2023-03-11T21:00:02.526Z,-0.31
2023-03-11T21:02:30.960Z,-0.37
2023-03-11T21:04:57.794Z,-0.39
2023-03-11T21:07:24.526Z,-0.39
2023-03-11T21:09:54.562Z,-0.29
2023-03-11T21:12:21.913Z,-0.13
2023-03-11T21:14:48.692Z,-0.12
2023-03-11T21:17:17.400Z,-0.09
2023-03-11T21:19:44.281Z,-0.07
2023-03-11T21:22:11.748Z,-0.01
2023-03-11T21:24:38.452Z,-0.08
2023-03-11T21:27:05.300Z,-0.06
2023-03-11T21:29:31.969Z,-0.02
2023-03-11T21:31:58.843Z,-0.06
2023-03-11T21:34:25.505Z,-0.09
2023-03-11T21:36:52.302Z,-0.04
2023-03-11T21:39:20.549Z,-0.08
2023-03-11T21:41:47.626Z,-0.10
2023-03-11T21:44:14.337Z,-0.20
2023-03-11T21:46:41.065Z,-0.21
2023-03-11T21:49:07.764Z,-0.18
2023-03-11T21:51:34.763Z,-0.29
2023-03-11T21:54:03.557Z,-0.35
2023-03-11T21:56:30.411Z,-0.35
2023-03-11T21:58:57.270Z,-0.51
2023-03-11T22:01:24.250Z,-0.55
2023-03-11T22:03:51.040Z,-0.63
2023-03-11T22:06:17.909Z,-0.72
2023-03-11T22:08:44.597Z,-0.67
2023-03-11T22:11:17.586Z,-0.58
2023-03-11T22:13:49.618Z,-0.49
2023-03-11T22:16:17.190Z,-0.56
2023-03-11T22:18:45.162Z,-0.52
2023-03-11T22:21:15.214Z,-0.56
2023-03-11T22:23:45.291Z,-0.58
2023-03-11T22:26:12.561Z,-0.66
2023-03-11T22:28:39.450Z,-0.70
2023-03-11T22:31:11.831Z,-0.70
2023-03-11T22:33:38.507Z,-0.71
2023-03-11T22:36:05.971Z,-0.66
2023-03-11T22:38:34.154Z,-0.69
2023-03-11T22:41:00.957Z,-0.62
2023-03-11T22:43:27.593Z,-0.68
2023-03-11T22:45:54.358Z,-0.63
2023-03-11T22:48:21.115Z,-0.61
2023-03-11T22:50:48.093Z,-0.59
2023-03-11T22:53:15.644Z,-0.66
2023-03-11T22:55:45.448Z,-0.57
2023-03-11T22:58:12.573Z,-0.51
2023-03-11T23:00:39.466Z,-0.50
2023-03-11T23:03:06.512Z,-0.48
2023-03-11T23:05:40.759Z,-0.44
2023-03-11T23:08:12.782Z,-0.42
2023-03-11T23:10:41.496Z,-0.46
2023-03-11T23:13:08.531Z,-0.72
2023-03-11T23:15:35.296Z,-0.86
2023-03-11T23:18:01.933Z,-0.99
2023-03-11T23:20:28.830Z,-1.04
2023-03-11T23:22:55.776Z,-1.13
2023-03-11T23:25:22.601Z,-1.22
2023-03-11T23:27:49.316Z,-1.09
2023-03-11T23:30:16.791Z,-0.98
2023-03-11T23:32:44.423Z,-0.97
2023-03-11T23:35:12.254Z,-0.92
2023-03-11T23:37:39.739Z,-0.90
2023-03-11T23:40:07.981Z,-0.84
2023-03-11T23:42:35.539Z,-0.82
2023-03-11T23:45:02.298Z,-0.90
2023-03-11T23:47:29.063Z,-0.94
2023-03-11T23:49:55.834Z,-0.94
2023-03-11T23:52:22.781Z,-1.01
2023-03-11T23:54:49.537Z,-1.05
2023-03-11T23:57:16.365Z,-1.08
2023-03-11T23:59:43.404Z,-1.09
